sensor_id;sensor_type;location;lat;lon;timestamp;P1;durP1;ratioP1;P2;durP2;ratioP2
46116;SDS011;32591;48.102;11.772;2024-03-02T00:01:32;18.50;;;7.72;;
46116;SDS011;32591;48.102;11.772;2024-03-02T00:04:00;20.63;;;9.25;;
46116;SDS011;32591;48.102;11.772;2024-03-02T00:06:33;21.20;;;8.38;;
46116;SDS011;32591;48.102;11.772;2024-03-02T00:09:02;24.02;;;10.30;;
46116;SDS011;32591;48.102;11.772;2024-03-02T00:11:31;18.60;;;9.30;;
46116;SDS011;32591;48.102;11.772;2024-03-02T00:14:04;22.13;;;9.48;;
46116;SDS011;32591;48.102;11.772;2024-03-02T00:16:32;20.50;;;8.95;;
46116;SDS011;32591;48.102;11.772;2024-03-02T00:19:01;10.57;;;5.38;;
46116;SDS011;32591;48.102;11.772;2024-03-02T00:21:30;7.75;;;4.82;;
46116;SDS011;32591;48.102;11.772;2024-03-02T00:23:59;7.60;;;4.38;;
46116;SDS011;32591;48.102;11.772;2024-03-02T00:26:29;7.60;;;5.20;;
46116;SDS011;32591;48.102;11.772;2024-03-02T00:28:58;8.98;;;5.03;;
46116;SDS011;32591;48.102;11.772;2024-03-02T00:31:27;7.63;;;4.82;;
46116;SDS011;32591;48.102;11.772;2024-03-02T00:33:55;7.80;;;5.25;;
46116;SDS011;32591;48.102;11.772;2024-03-02T00:36:26;10.20;;;5.53;;
46116;SDS011;32591;48.102;11.772;2024-03-02T00:38:55;7.95;;;5.15;;
46116;SDS011;32591;48.102;11.772;2024-03-02T00:41:24;9.13;;;5.53;;
46116;SDS011;32591;48.102;11.772;2024-03-02T00:43:57;7.63;;;4.97;;
46116;SDS011;32591;48.102;11.772;2024-03-02T00:46:27;6.40;;;4.78;;
46116;SDS011;32591;48.102;11.772;2024-03-02T00:48:59;8.45;;;5.32;;
46116;SDS011;32591;48.102;11.772;2024-03-02T00:51:30;8.93;;;5.35;;
46116;SDS011;32591;48.102;11.772;2024-03-02T00:54:00;8.05;;;5.43;;
46116;SDS011;32591;48.102;11.772;2024-03-02T00:56:31;9.65;;;5.88;;
46116;SDS011;32591;48.102;11.772;2024-03-02T00:59:02;8.50;;;5.28;;
46116;SDS011;32591;48.102;11.772;2024-03-02T01:01:32;7.25;;;5.35;;
46116;SDS011;32591;48.102;11.772;2024-03-02T01:04:00;7.75;;;5.40;;
46116;SDS011;32591;48.102;11.772;2024-03-02T01:06:28;8.27;;;5.55;;
46116;SDS011;32591;48.102;11.772;2024-03-02T01:08:57;9.23;;;5.72;;
46116;SDS011;32591;48.102;11.772;2024-03-02T01:11:26;9.45;;;5.97;;
46116;SDS011;32591;48.102;11.772;2024-03-02T01:13:54;9.25;;;5.70;;
46116;SDS011;32591;48.102;11.772;2024-03-02T01:16:23;9.68;;;5.78;;
46116;SDS011;32591;48.102;11.772;2024-03-02T01:18:51;8.25;;;5.53;;
46116;SDS011;32591;48.102;11.772;2024-03-02T01:21:20;7.53;;;5.43;;
46116;SDS011;32591;48.102;11.772;2024-03-02T01:23:48;8.75;;;5.47;;
46116;SDS011;32591;48.102;11.772;2024-03-02T01:26:16;10.27;;;5.32;;
46116;SDS011;32591;48.102;11.772;2024-03-02T01:28:44;7.85;;;5.18;;
46116;SDS011;32591;48.102;11.772;2024-03-02T01:31:12;10.07;;;5.88;;
46116;SDS011;32591;48.102;11.772;2024-03-02T01:33:42;7.93;;;5.68;;
46116;SDS011;32591;48.102;11.772;2024-03-02T01:36:10;10.43;;;5.00;;
46116;SDS011;32591;48.102;11.772;2024-03-02T01:38:38;7.18;;;5.18;;
46116;SDS011;32591;48.102;11.772;2024-03-02T01:41:06;8.65;;;5.20;;
46116;SDS011;32591;48.102;11.772;2024-03-02T01:43:34;8.05;;;5.15;;
46116;SDS011;32591;48.102;11.772;2024-03-02T01:46:07;7.82;;;5.78;;
46116;SDS011;32591;48.102;11.772;2024-03-02T01:48:35;7.30;;;4.97;;
46116;SDS011;32591;48.102;11.772;2024-03-02T01:51:05;9.05;;;5.47;;
46116;SDS011;32591;48.102;11.772;2024-03-02T01:53:34;7.80;;;5.60;;
46116;SDS011;32591;48.102;11.772;2024-03-02T01:56:03;8.98;;;5.28;;
46116;SDS011;32591;48.102;11.772;2024-03-02T01:58:38;8.55;;;4.97;;
46116;SDS011;32591;48.102;11.772;2024-03-02T02:01:06;7.97;;;5.50;;
46116;SDS011;32591;48.102;11.772;2024-03-02T02:03:34;8.02;;;4.40;;
46116;SDS011;32591;48.102;11.772;2024-03-02T02:06:04;8.52;;;5.85;;
46116;SDS011;32591;48.102;11.772;2024-03-02T02:08:33;7.75;;;5.18;;
46116;SDS011;32591;48.102;11.772;2024-03-02T02:11:01;7.90;;;5.07;;
46116;SDS011;32591;48.102;11.772;2024-03-02T02:13:30;9.77;;;5.70;;
46116;SDS011;32591;48.102;11.772;2024-03-02T02:16:03;7.65;;;5.45;;
46116;SDS011;32591;48.102;11.772;2024-03-02T02:18:33;8.65;;;6.35;;
46116;SDS011;32591;48.102;11.772;2024-03-02T02:21:02;9.48;;;5.55;;
46116;SDS011;32591;48.102;11.772;2024-03-02T02:23:33;10.82;;;6.45;;
46116;SDS011;32591;48.102;11.772;2024-03-02T02:26:01;8.30;;;5.43;;
46116;SDS011;32591;48.102;11.772;2024-03-02T02:28:30;9.25;;;6.30;;
46116;SDS011;32591;48.102;11.772;2024-03-02T02:30:58;9.75;;;6.00;;
46116;SDS011;32591;48.102;11.772;2024-03-02T02:33:27;12.43;;;6.22;;
46116;SDS011;32591;48.102;11.772;2024-03-02T02:35:56;9.57;;;6.05;;
46116;SDS011;32591;48.102;11.772;2024-03-02T02:38:24;9.70;;;6.13;;
46116;SDS011;32591;48.102;11.772;2024-03-02T02:40:54;8.82;;;5.85;;
46116;SDS011;32591;48.102;11.772;2024-03-02T02:43:22;9.23;;;6.10;;
46116;SDS011;32591;48.102;11.772;2024-03-02T02:45:50;8.88;;;6.28;;
46116;SDS011;32591;48.102;11.772;2024-03-02T02:48:18;10.35;;;6.15;;
46116;SDS011;32591;48.102;11.772;2024-03-02T02:50:46;9.48;;;6.63;;
46116;SDS011;32591;48.102;11.772;2024-03-02T02:53:14;8.65;;;6.85;;
46116;SDS011;32591;48.102;11.772;2024-03-02T02:55:42;12.05;;;6.75;;
46116;SDS011;32591;48.102;11.772;2024-03-02T02:58:12;14.43;;;7.18;;
46116;SDS011;32591;48.102;11.772;2024-03-02T03:00:41;10.98;;;7.20;;
46116;SDS011;32591;48.102;11.772;2024-03-02T03:03:12;10.60;;;7.25;;
46116;SDS011;32591;48.102;11.772;2024-03-02T03:05:41;10.65;;;6.90;;
46116;SDS011;32591;48.102;11.772;2024-03-02T03:08:09;11.10;;;7.15;;
46116;SDS011;32591;48.102;11.772;2024-03-02T03:10:37;11.50;;;7.25;;
46116;SDS011;32591;48.102;11.772;2024-03-02T03:13:05;13.13;;;6.93;;
46116;SDS011;32591;48.102;11.772;2024-03-02T03:15:36;12.52;;;8.38;;
46116;SDS011;32591;48.102;11.772;2024-03-02T03:18:04;11.27;;;7.15;;
46116;SDS011;32591;48.102;11.772;2024-03-02T03:20:33;9.90;;;6.72;;
46116;SDS011;32591;48.102;11.772;2024-03-02T03:23:02;12.40;;;7.30;;
46116;SDS011;32591;48.102;11.772;2024-03-02T03:25:31;14.93;;;7.82;;
46116;SDS011;32591;48.102;11.772;2024-03-02T03:27:59;13.73;;;7.60;;
46116;SDS011;32591;48.102;11.772;2024-03-02T03:30:29;10.85;;;7.10;;
46116;SDS011;32591;48.102;11.772;2024-03-02T03:32:59;13.80;;;8.68;;
46116;SDS011;32591;48.102;11.772;2024-03-02T03:35:27;15.27;;;8.98;;
46116;SDS011;32591;48.102;11.772;2024-03-02T03:37:55;12.73;;;8.45;;
46116;SDS011;32591;48.102;11.772;2024-03-02T03:40:23;13.02;;;7.68;;
46116;SDS011;32591;48.102;11.772;2024-03-02T03:42:51;13.68;;;7.85;;
46116;SDS011;32591;48.102;11.772;2024-03-02T03:45:19;13.75;;;7.90;;
46116;SDS011;32591;48.102;11.772;2024-03-02T03:47:48;13.10;;;7.70;;
46116;SDS011;32591;48.102;11.772;2024-03-02T03:50:17;11.32;;;6.93;;
46116;SDS011;32591;48.102;11.772;2024-03-02T03:52:46;12.30;;;7.35;;
46116;SDS011;32591;48.102;11.772;2024-03-02T03:55:14;12.02;;;7.45;;
46116;SDS011;32591;48.102;11.772;2024-03-02T03:57:42;11.85;;;7.80;;
46116;SDS011;32591;48.102;11.772;2024-03-02T04:00:10;13.38;;;8.07;;
46116;SDS011;32591;48.102;11.772;2024-03-02T04:02:40;13.10;;;7.95;;
46116;SDS011;32591;48.102;11.772;2024-03-02T04:05:08;10.65;;;7.55;;
46116;SDS011;32591;48.102;11.772;2024-03-02T04:07:39;12.07;;;6.82;;
46116;SDS011;32591;48.102;11.772;2024-03-02T04:10:08;14.50;;;8.07;;
46116;SDS011;32591;48.102;11.772;2024-03-02T04:12:39;11.75;;;7.53;;
46116;SDS011;32591;48.102;11.772;2024-03-02T04:15:07;12.20;;;8.05;;
46116;SDS011;32591;48.102;11.772;2024-03-02T04:17:35;12.27;;;8.32;;
46116;SDS011;32591;48.102;11.772;2024-03-02T04:20:04;13.77;;;7.22;;
46116;SDS011;32591;48.102;11.772;2024-03-02T04:22:33;11.43;;;7.55;;
46116;SDS011;32591;48.102;11.772;2024-03-02T04:25:04;12.95;;;8.30;;
46116;SDS011;32591;48.102;11.772;2024-03-02T04:27:33;10.18;;;7.07;;
46116;SDS011;32591;48.102;11.772;2024-03-02T04:30:02;10.98;;;7.47;;
46116;SDS011;32591;48.102;11.772;2024-03-02T04:32:33;13.13;;;8.45;;
46116;SDS011;32591;48.102;11.772;2024-03-02T04:35:02;13.02;;;8.20;;
46116;SDS011;32591;48.102;11.772;2024-03-02T04:37:31;13.45;;;7.70;;
46116;SDS011;32591;48.102;11.772;2024-03-02T04:40:04;12.77;;;7.28;;
46116;SDS011;32591;48.102;11.772;2024-03-02T04:42:35;15.68;;;8.35;;
46116;SDS011;32591;48.102;11.772;2024-03-02T04:45:04;12.10;;;8.05;;
46116;SDS011;32591;48.102;11.772;2024-03-02T04:47:33;14.20;;;8.27;;
46116;SDS011;32591;48.102;11.772;2024-03-02T04:50:01;13.40;;;7.40;;
46116;SDS011;32591;48.102;11.772;2024-03-02T04:52:30;13.57;;;7.55;;
46116;SDS011;32591;48.102;11.772;2024-03-02T04:54:58;12.05;;;7.60;;
46116;SDS011;32591;48.102;11.772;2024-03-02T04:57:52;12.50;;;7.93;;
46116;SDS011;32591;48.102;11.772;2024-03-02T05:00:21;12.52;;;8.23;;
46116;SDS011;32591;48.102;11.772;2024-03-02T05:02:49;13.20;;;7.75;;
46116;SDS011;32591;48.102;11.772;2024-03-02T05:05:17;16.83;;;8.57;;
46116;SDS011;32591;48.102;11.772;2024-03-02T05:07:45;13.55;;;8.00;;
46116;SDS011;32591;48.102;11.772;2024-03-02T05:10:14;14.90;;;8.57;;
46116;SDS011;32591;48.102;11.772;2024-03-02T05:12:42;15.05;;;8.10;;
46116;SDS011;32591;48.102;11.772;2024-03-02T05:15:28;13.07;;;7.97;;
46116;SDS011;32591;48.102;11.772;2024-03-02T05:17:56;11.95;;;8.30;;
46116;SDS011;32591;48.102;11.772;2024-03-02T05:20:25;12.48;;;7.38;;
46116;SDS011;32591;48.102;11.772;2024-03-02T05:22:54;14.82;;;7.95;;
46116;SDS011;32591;48.102;11.772;2024-03-02T05:25:22;12.32;;;7.70;;
46116;SDS011;32591;48.102;11.772;2024-03-02T05:27:50;13.63;;;7.97;;
46116;SDS011;32591;48.102;11.772;2024-03-02T05:30:18;13.48;;;8.05;;
46116;SDS011;32591;48.102;11.772;2024-03-02T05:32:48;14.60;;;7.40;;
46116;SDS011;32591;48.102;11.772;2024-03-02T05:35:16;13.18;;;7.05;;
46116;SDS011;32591;48.102;11.772;2024-03-02T05:37:44;13.65;;;8.00;;
46116;SDS011;32591;48.102;11.772;2024-03-02T05:40:12;11.70;;;7.32;;
46116;SDS011;32591;48.102;11.772;2024-03-02T05:42:42;13.98;;;8.10;;
46116;SDS011;32591;48.102;11.772;2024-03-02T05:45:10;11.75;;;8.23;;
46116;SDS011;32591;48.102;11.772;2024-03-02T05:47:38;12.85;;;8.32;;
46116;SDS011;32591;48.102;11.772;2024-03-02T05:50:08;11.23;;;7.72;;
46116;SDS011;32591;48.102;11.772;2024-03-02T05:52:36;13.05;;;8.07;;
46116;SDS011;32591;48.102;11.772;2024-03-02T05:55:05;12.82;;;8.10;;
46116;SDS011;32591;48.102;11.772;2024-03-02T05:57:34;11.15;;;7.65;;
46116;SDS011;32591;48.102;11.772;2024-03-02T06:00:16;13.35;;;8.68;;
46116;SDS011;32591;48.102;11.772;2024-03-02T06:02:45;12.93;;;7.63;;
46116;SDS011;32591;48.102;11.772;2024-03-02T06:05:14;13.65;;;8.80;;
46116;SDS011;32591;48.102;11.772;2024-03-02T06:07:43;14.13;;;7.88;;
46116;SDS011;32591;48.102;11.772;2024-03-02T06:10:11;13.80;;;8.45;;
46116;SDS011;32591;48.102;11.772;2024-03-02T06:12:40;13.70;;;7.63;;
46116;SDS011;32591;48.102;11.772;2024-03-02T06:15:09;13.73;;;7.88;;
46116;SDS011;32591;48.102;11.772;2024-03-02T06:17:37;12.40;;;7.75;;
46116;SDS011;32591;48.102;11.772;2024-03-02T06:20:06;14.10;;;8.27;;
46116;SDS011;32591;48.102;11.772;2024-03-02T06:22:37;12.93;;;8.13;;
46116;SDS011;32591;48.102;11.772;2024-03-02T06:25:05;10.93;;;7.07;;
46116;SDS011;32591;48.102;11.772;2024-03-02T06:27:34;12.15;;;7.90;;
46116;SDS011;32591;48.102;11.772;2024-03-02T06:30:03;15.02;;;7.95;;
46116;SDS011;32591;48.102;11.772;2024-03-02T06:32:32;12.45;;;7.75;;
46116;SDS011;32591;48.102;11.772;2024-03-02T06:35:00;15.23;;;7.85;;
46116;SDS011;32591;48.102;11.772;2024-03-02T06:37:30;15.30;;;8.52;;
46116;SDS011;32591;48.102;11.772;2024-03-02T06:39:59;14.45;;;7.78;;
46116;SDS011;32591;48.102;11.772;2024-03-02T06:42:27;16.00;;;8.52;;
46116;SDS011;32591;48.102;11.772;2024-03-02T06:45:00;16.67;;;9.15;;
46116;SDS011;32591;48.102;11.772;2024-03-02T06:47:29;12.85;;;8.77;;
46116;SDS011;32591;48.102;11.772;2024-03-02T06:49:57;14.50;;;8.82;;
46116;SDS011;32591;48.102;11.772;2024-03-02T06:52:26;21.25;;;10.30;;
46116;SDS011;32591;48.102;11.772;2024-03-02T06:54:54;15.07;;;9.98;;
46116;SDS011;32591;48.102;11.772;2024-03-02T06:57:23;12.48;;;8.45;;
46116;SDS011;32591;48.102;11.772;2024-03-02T06:59:51;16.95;;;9.25;;
46116;SDS011;32591;48.102;11.772;2024-03-02T07:02:21;12.20;;;7.43;;
46116;SDS011;32591;48.102;11.772;2024-03-02T07:04:49;13.65;;;8.00;;
46116;SDS011;32591;48.102;11.772;2024-03-02T07:07:18;12.02;;;8.02;;
46116;SDS011;32591;48.102;11.772;2024-03-02T07:09:47;12.20;;;7.25;;
46116;SDS011;32591;48.102;11.772;2024-03-02T07:12:15;11.95;;;7.00;;
46116;SDS011;32591;48.102;11.772;2024-03-02T07:14:44;11.70;;;7.85;;
46116;SDS011;32591;48.102;11.772;2024-03-02T07:17:37;12.85;;;8.15;;
46116;SDS011;32591;48.102;11.772;2024-03-02T07:20:05;11.57;;;7.15;;
46116;SDS011;32591;48.102;11.772;2024-03-02T07:22:34;13.25;;;7.35;;
46116;SDS011;32591;48.102;11.772;2024-03-02T07:25:07;13.98;;;7.78;;
46116;SDS011;32591;48.102;11.772;2024-03-02T07:27:55;13.90;;;8.65;;
46116;SDS011;32591;48.102;11.772;2024-03-02T07:30:25;12.25;;;7.88;;
46116;SDS011;32591;48.102;11.772;2024-03-02T07:32:53;15.20;;;9.05;;
46116;SDS011;32591;48.102;11.772;2024-03-02T07:35:21;13.65;;;8.45;;
46116;SDS011;32591;48.102;11.772;2024-03-02T07:37:53;16.88;;;9.90;;
46116;SDS011;32591;48.102;11.772;2024-03-02T07:40:21;16.08;;;10.65;;
46116;SDS011;32591;48.102;11.772;2024-03-02T07:42:50;16.83;;;10.68;;
46116;SDS011;32591;48.102;11.772;2024-03-02T07:45:18;16.85;;;10.05;;
46116;SDS011;32591;48.102;11.772;2024-03-02T07:47:47;16.40;;;10.55;;
46116;SDS011;32591;48.102;11.772;2024-03-02T07:50:16;16.95;;;10.18;;
46116;SDS011;32591;48.102;11.772;2024-03-02T07:52:44;16.25;;;10.15;;
46116;SDS011;32591;48.102;11.772;2024-03-02T07:55:12;17.30;;;10.18;;
46116;SDS011;32591;48.102;11.772;2024-03-02T07:57:40;18.83;;;10.65;;
46116;SDS011;32591;48.102;11.772;2024-03-02T08:00:09;18.92;;;10.45;;
46116;SDS011;32591;48.102;11.772;2024-03-02T08:02:40;15.55;;;9.93;;
46116;SDS011;32591;48.102;11.772;2024-03-02T08:05:10;15.85;;;10.23;;
46116;SDS011;32591;48.102;11.772;2024-03-02T08:07:39;17.02;;;10.75;;
46116;SDS011;32591;48.102;11.772;2024-03-02T08:10:07;16.67;;;9.73;;
46116;SDS011;32591;48.102;11.772;2024-03-02T08:12:36;17.65;;;11.15;;
46116;SDS011;32591;48.102;11.772;2024-03-02T08:15:05;15.07;;;9.55;;
46116;SDS011;32591;48.102;11.772;2024-03-02T08:17:34;19.98;;;11.35;;
46116;SDS011;32591;48.102;11.772;2024-03-02T08:20:04;18.77;;;11.60;;
46116;SDS011;32591;48.102;11.772;2024-03-02T08:22:36;20.52;;;11.38;;
46116;SDS011;32591;48.102;11.772;2024-03-02T08:25:04;19.80;;;11.30;;
46116;SDS011;32591;48.102;11.772;2024-03-02T08:27:33;21.27;;;12.50;;
46116;SDS011;32591;48.102;11.772;2024-03-02T08:30:02;18.55;;;10.75;;
46116;SDS011;32591;48.102;11.772;2024-03-02T08:32:33;19.45;;;12.02;;
46116;SDS011;32591;48.102;11.772;2024-03-02T08:35:01;20.08;;;11.90;;
46116;SDS011;32591;48.102;11.772;2024-03-02T08:37:31;20.52;;;11.57;;
46116;SDS011;32591;48.102;11.772;2024-03-02T08:40:01;16.88;;;10.85;;
46116;SDS011;32591;48.102;11.772;2024-03-02T08:42:33;18.88;;;10.27;;
46116;SDS011;32591;48.102;11.772;2024-03-02T08:45:02;19.38;;;10.18;;
46116;SDS011;32591;48.102;11.772;2024-03-02T08:47:30;13.63;;;8.45;;
46116;SDS011;32591;48.102;11.772;2024-03-02T08:49:59;16.15;;;9.60;;
46116;SDS011;32591;48.102;11.772;2024-03-02T08:52:28;20.08;;;10.45;;
46116;SDS011;32591;48.102;11.772;2024-03-02T08:54:56;17.67;;;10.23;;
46116;SDS011;32591;48.102;11.772;2024-03-02T08:57:25;21.88;;;12.35;;
46116;SDS011;32591;48.102;11.772;2024-03-02T08:59:53;22.25;;;9.80;;
46116;SDS011;32591;48.102;11.772;2024-03-02T09:02:22;21.65;;;13.65;;
46116;SDS011;32591;48.102;11.772;2024-03-02T09:04:50;24.23;;;13.25;;
46116;SDS011;32591;48.102;11.772;2024-03-02T09:07:19;21.50;;;13.02;;
46116;SDS011;32591;48.102;11.772;2024-03-02T09:09:47;27.83;;;14.20;;
46116;SDS011;32591;48.102;11.772;2024-03-02T09:12:15;27.38;;;14.90;;
46116;SDS011;32591;48.102;11.772;2024-03-02T09:14:45;26.70;;;14.73;;
46116;SDS011;32591;48.102;11.772;2024-03-02T09:17:14;23.48;;;13.65;;
46116;SDS011;32591;48.102;11.772;2024-03-02T09:19:42;23.67;;;14.65;;
46116;SDS011;32591;48.102;11.772;2024-03-02T09:22:10;26.92;;;14.77;;
46116;SDS011;32591;48.102;11.772;2024-03-02T09:24:38;23.80;;;13.55;;
46116;SDS011;32591;48.102;11.772;2024-03-02T09:27:06;24.50;;;13.50;;
46116;SDS011;32591;48.102;11.772;2024-03-02T09:29:34;24.30;;;13.23;;
46116;SDS011;32591;48.102;11.772;2024-03-02T09:32:04;25.60;;;12.50;;
46116;SDS011;32591;48.102;11.772;2024-03-02T09:34:34;25.45;;;12.88;;
46116;SDS011;32591;48.102;11.772;2024-03-02T09:37:02;21.10;;;11.65;;
46116;SDS011;32591;48.102;11.772;2024-03-02T09:39:31;22.70;;;12.40;;
46116;SDS011;32591;48.102;11.772;2024-03-02T09:41:59;26.48;;;13.77;;
46116;SDS011;32591;48.102;11.772;2024-03-02T09:44:27;23.50;;;12.98;;
46116;SDS011;32591;48.102;11.772;2024-03-02T09:46:56;20.98;;;12.57;;
46116;SDS011;32591;48.102;11.772;2024-03-02T09:49:26;22.70;;;11.18;;
46116;SDS011;32591;48.102;11.772;2024-03-02T09:51:54;20.42;;;11.30;;
46116;SDS011;32591;48.102;11.772;2024-03-02T09:54:22;20.23;;;10.60;;
46116;SDS011;32591;48.102;11.772;2024-03-02T09:56:50;18.08;;;8.88;;
46116;SDS011;32591;48.102;11.772;2024-03-02T09:59:18;20.85;;;10.55;;
46116;SDS011;32591;48.102;11.772;2024-03-02T10:04:35;17.38;;;8.95;;
46116;SDS011;32591;48.102;11.772;2024-03-02T10:07:09;16.80;;;9.95;;
46116;SDS011;32591;48.102;11.772;2024-03-02T10:09:38;16.20;;;9.10;;
46116;SDS011;32591;48.102;11.772;2024-03-02T10:12:08;14.93;;;8.05;;
46116;SDS011;32591;48.102;11.772;2024-03-02T10:14:38;11.90;;;5.85;;
46116;SDS011;32591;48.102;11.772;2024-03-02T10:17:07;12.00;;;6.97;;
46116;SDS011;32591;48.102;11.772;2024-03-02T10:19:40;10.00;;;5.15;;
46116;SDS011;32591;48.102;11.772;2024-03-02T10:22:08;11.32;;;6.38;;
46116;SDS011;32591;48.102;11.772;2024-03-02T10:24:38;16.08;;;8.98;;
46116;SDS011;32591;48.102;11.772;2024-03-02T10:27:09;17.92;;;10.23;;
46116;SDS011;32591;48.102;11.772;2024-03-02T10:29:39;15.10;;;8.32;;
46116;SDS011;32591;48.102;11.772;2024-03-02T10:32:10;12.23;;;6.15;;
46116;SDS011;32591;48.102;11.772;2024-03-02T10:34:41;8.85;;;4.50;;
46116;SDS011;32591;48.102;11.772;2024-03-02T10:37:10;14.15;;;7.80;;
46116;SDS011;32591;48.102;11.772;2024-03-02T10:39:39;15.07;;;7.57;;
46116;SDS011;32591;48.102;11.772;2024-03-02T10:42:08;14.40;;;6.85;;
46116;SDS011;32591;48.102;11.772;2024-03-02T10:44:36;11.95;;;7.70;;
46116;SDS011;32591;48.102;11.772;2024-03-02T10:47:05;14.45;;;6.93;;
46116;SDS011;32591;48.102;11.772;2024-03-02T10:49:34;13.68;;;7.25;;
46116;SDS011;32591;48.102;11.772;2024-03-02T10:52:03;17.88;;;9.27;;
46116;SDS011;32591;48.102;11.772;2024-03-02T10:54:32;18.25;;;9.10;;
46116;SDS011;32591;48.102;11.772;2024-03-02T10:57:06;17.02;;;8.82;;
46116;SDS011;32591;48.102;11.772;2024-03-02T10:59:37;13.23;;;7.97;;
46116;SDS011;32591;48.102;11.772;2024-03-02T11:02:10;18.45;;;9.35;;
46116;SDS011;32591;48.102;11.772;2024-03-02T11:04:41;12.93;;;7.82;;
46116;SDS011;32591;48.102;11.772;2024-03-02T11:07:11;15.75;;;7.68;;
46116;SDS011;32591;48.102;11.772;2024-03-02T11:09:41;13.10;;;7.85;;
46116;SDS011;32591;48.102;11.772;2024-03-02T11:12:19;16.25;;;8.07;;
46116;SDS011;32591;48.102;11.772;2024-03-02T11:14:55;14.68;;;8.85;;
46116;SDS011;32591;48.102;11.772;2024-03-02T11:17:24;12.18;;;7.30;;
46116;SDS011;32591;48.102;11.772;2024-03-02T11:19:53;13.63;;;8.02;;
46116;SDS011;32591;48.102;11.772;2024-03-02T11:22:23;12.13;;;6.32;;
46116;SDS011;32591;48.102;11.772;2024-03-02T11:24:52;12.55;;;6.35;;
46116;SDS011;32591;48.102;11.772;2024-03-02T11:33:24;8.13;;;4.15;;
46116;SDS011;32591;48.102;11.772;2024-03-02T11:35:57;7.03;;;4.03;;
46116;SDS011;32591;48.102;11.772;2024-03-02T11:38:34;7.57;;;3.92;;
46116;SDS011;32591;48.102;11.772;2024-03-02T11:41:06;11.10;;;4.88;;
46116;SDS011;32591;48.102;11.772;2024-03-02T11:43:37;8.48;;;5.13;;
46116;SDS011;32591;48.102;11.772;2024-03-02T11:46:06;13.48;;;7.13;;
46116;SDS011;32591;48.102;11.772;2024-03-02T11:48:35;12.77;;;6.13;;
46116;SDS011;32591;48.102;11.772;2024-03-02T11:51:04;9.45;;;5.20;;
46116;SDS011;32591;48.102;11.772;2024-03-02T11:53:34;10.38;;;5.72;;
46116;SDS011;32591;48.102;11.772;2024-03-02T11:56:06;11.30;;;5.63;;
46116;SDS011;32591;48.102;11.772;2024-03-02T11:58:38;13.57;;;7.85;;
46116;SDS011;32591;48.102;11.772;2024-03-02T12:01:07;12.25;;;7.22;;
46116;SDS011;32591;48.102;11.772;2024-03-02T12:03:36;11.80;;;6.85;;
46116;SDS011;32591;48.102;11.772;2024-03-02T12:06:05;13.43;;;7.53;;
46116;SDS011;32591;48.102;11.772;2024-03-02T12:08:35;13.77;;;7.82;;
46116;SDS011;32591;48.102;11.772;2024-03-02T12:11:04;13.00;;;7.93;;
46116;SDS011;32591;48.102;11.772;2024-03-02T12:13:33;13.98;;;6.60;;
46116;SDS011;32591;48.102;11.772;2024-03-02T12:16:01;9.98;;;5.38;;
46116;SDS011;32591;48.102;11.772;2024-03-02T12:18:30;7.47;;;4.45;;
46116;SDS011;32591;48.102;11.772;2024-03-02T12:20:58;9.60;;;5.57;;
46116;SDS011;32591;48.102;11.772;2024-03-02T12:23:29;7.63;;;4.60;;
46116;SDS011;32591;48.102;11.772;2024-03-02T12:25:58;8.32;;;4.72;;
46116;SDS011;32591;48.102;11.772;2024-03-02T12:28:26;9.18;;;5.68;;
46116;SDS011;32591;48.102;11.772;2024-03-02T12:30:57;8.20;;;4.68;;
46116;SDS011;32591;48.102;11.772;2024-03-02T12:33:25;7.13;;;4.45;;
46116;SDS011;32591;48.102;11.772;2024-03-02T12:35:56;9.50;;;4.68;;
46116;SDS011;32591;48.102;11.772;2024-03-02T12:38:25;9.98;;;5.18;;
46116;SDS011;32591;48.102;11.772;2024-03-02T12:41:05;8.55;;;4.75;;
46116;SDS011;32591;48.102;11.772;2024-03-02T12:43:33;9.95;;;5.20;;
46116;SDS011;32591;48.102;11.772;2024-03-02T12:46:01;10.40;;;6.32;;
46116;SDS011;32591;48.102;11.772;2024-03-02T12:48:32;13.93;;;7.00;;
46116;SDS011;32591;48.102;11.772;2024-03-02T12:51:00;9.15;;;5.65;;
46116;SDS011;32591;48.102;11.772;2024-03-02T12:53:28;10.05;;;6.15;;
46116;SDS011;32591;48.102;11.772;2024-03-02T12:55:56;8.30;;;5.75;;
46116;SDS011;32591;48.102;11.772;2024-03-02T12:58:26;10.65;;;5.93;;
46116;SDS011;32591;48.102;11.772;2024-03-02T13:01:05;12.60;;;5.93;;
46116;SDS011;32591;48.102;11.772;2024-03-02T13:03:36;11.57;;;6.05;;
46116;SDS011;32591;48.102;11.772;2024-03-02T13:06:05;10.82;;;4.72;;
46116;SDS011;32591;48.102;11.772;2024-03-02T13:08:34;6.40;;;3.80;;
46116;SDS011;32591;48.102;11.772;2024-03-02T13:11:03;7.10;;;4.10;;
46116;SDS011;32591;48.102;11.772;2024-03-02T13:13:34;8.70;;;5.07;;
46116;SDS011;32591;48.102;11.772;2024-03-02T13:16:03;12.15;;;6.32;;
46116;SDS011;32591;48.102;11.772;2024-03-02T13:18:35;10.13;;;5.35;;
46116;SDS011;32591;48.102;11.772;2024-03-02T13:21:04;9.70;;;5.20;;
46116;SDS011;32591;48.102;11.772;2024-03-02T13:23:32;12.82;;;5.22;;
46116;SDS011;32591;48.102;11.772;2024-03-02T13:26:01;9.23;;;4.90;;
46116;SDS011;32591;48.102;11.772;2024-03-02T13:28:29;10.05;;;5.03;;
46116;SDS011;32591;48.102;11.772;2024-03-02T13:30:59;9.52;;;4.90;;
46116;SDS011;32591;48.102;11.772;2024-03-02T13:33:27;12.32;;;4.68;;
46116;SDS011;32591;48.102;11.772;2024-03-02T13:35:57;7.65;;;4.80;;
46116;SDS011;32591;48.102;11.772;2024-03-02T13:38:25;10.50;;;5.65;;
46116;SDS011;32591;48.102;11.772;2024-03-02T13:40:54;10.57;;;5.70;;
46116;SDS011;32591;48.102;11.772;2024-03-02T13:43:22;10.27;;;5.05;;
46116;SDS011;32591;48.102;11.772;2024-03-02T13:45:51;9.55;;;5.35;;
46116;SDS011;32591;48.102;11.772;2024-03-02T13:48:21;9.13;;;5.10;;
46116;SDS011;32591;48.102;11.772;2024-03-02T13:50:49;9.52;;;5.65;;
46116;SDS011;32591;48.102;11.772;2024-03-02T13:53:17;8.88;;;4.53;;
46116;SDS011;32591;48.102;11.772;2024-03-02T13:55:46;8.57;;;4.32;;
46116;SDS011;32591;48.102;11.772;2024-03-02T13:58:14;8.40;;;4.82;;
46116;SDS011;32591;48.102;11.772;2024-03-02T14:00:42;7.55;;;4.97;;
46116;SDS011;32591;48.102;11.772;2024-03-02T14:03:12;8.98;;;5.07;;
46116;SDS011;32591;48.102;11.772;2024-03-02T14:05:43;9.40;;;4.97;;
46116;SDS011;32591;48.102;11.772;2024-03-02T14:08:12;12.50;;;5.03;;
46116;SDS011;32591;48.102;11.772;2024-03-02T14:10:40;10.68;;;5.50;;
46116;SDS011;32591;48.102;11.772;2024-03-02T14:13:09;10.40;;;5.00;;
46116;SDS011;32591;48.102;11.772;2024-03-02T14:15:37;8.82;;;3.90;;
46116;SDS011;32591;48.102;11.772;2024-03-02T14:18:06;11.23;;;4.65;;
46116;SDS011;32591;48.102;11.772;2024-03-02T14:20:36;8.75;;;5.00;;
46116;SDS011;32591;48.102;11.772;2024-03-02T14:23:05;8.30;;;4.95;;
46116;SDS011;32591;48.102;11.772;2024-03-02T14:25:33;10.20;;;4.97;;
46116;SDS011;32591;48.102;11.772;2024-03-02T14:28:02;8.30;;;4.32;;
46116;SDS011;32591;48.102;11.772;2024-03-02T14:30:50;8.20;;;4.88;;
46116;SDS011;32591;48.102;11.772;2024-03-02T14:33:19;7.90;;;5.00;;
46116;SDS011;32591;48.102;11.772;2024-03-02T14:35:47;9.70;;;5.43;;
46116;SDS011;32591;48.102;11.772;2024-03-02T14:38:17;12.00;;;4.93;;
46116;SDS011;32591;48.102;11.772;2024-03-02T14:40:45;8.25;;;4.95;;
46116;SDS011;32591;48.102;11.772;2024-03-02T14:43:13;7.60;;;4.95;;
46116;SDS011;32591;48.102;11.772;2024-03-02T14:45:41;8.77;;;5.32;;